createdAt,value
2022-12-01T00:01:16.406Z,8.50
2022-12-01T00:03:43.072Z,8.18
2022-12-01T00:06:17.963Z,8.57
2022-12-01T00:09:05.053Z,8.80
2022-12-01T00:11:33.073Z,9.68
2022-12-01T00:13:59.674Z,8.02
2022-12-01T00:16:26.328Z,8.80
2022-12-01T00:18:53.256Z,9.25
2022-12-01T00:21:23.005Z,7.82
2022-12-01T00:23:55.182Z,9.52
2022-12-01T00:26:22.738Z,8.48
2022-12-01T00:28:51.214Z,8.80
2022-12-01T00:31:18.080Z,7.05
2022-12-01T00:33:44.742Z,9.00
2022-12-01T00:36:11.485Z,6.75
2022-12-01T00:38:38.873Z,6.60
2022-12-01T00:41:05.639Z,6.53
2022-12-01T00:43:32.580Z,6.95
2022-12-01T00:45:59.456Z,5.30
2022-12-01T00:48:26.071Z,4.97
2022-12-01T00:50:53.571Z,4.85
2022-12-01T00:53:20.878Z,4.78
2022-12-01T00:55:47.467Z,6.10
2022-12-01T00:58:14.030Z,4.65
2022-12-01T01:00:40.634Z,5.78
2022-12-01T01:03:07.712Z,6.50
2022-12-01T01:05:42.024Z,5.95
2022-12-01T01:08:13.438Z,5.25
2022-12-01T01:10:41.283Z,5.57
2022-12-01T01:13:07.846Z,5.63
2022-12-01T01:15:34.513Z,6.63
2022-12-01T01:18:01.622Z,6.28
2022-12-01T01:20:28.863Z,6.47
2022-12-01T01:22:55.420Z,6.68
2022-12-01T01:25:22.835Z,6.30
2022-12-01T01:27:49.783Z,6.68
2022-12-01T01:30:16.897Z,6.80
2022-12-01T01:32:43.480Z,7.20
2022-12-01T01:35:10.097Z,7.35
2022-12-01T01:37:36.622Z,8.55
2022-12-01T01:40:03.442Z,7.05
2022-12-01T01:42:30.024Z,6.18
2022-12-01T01:44:58.789Z,8.43
2022-12-01T01:47:32.918Z,8.55
2022-12-01T01:50:06.246Z,7.55
2022-12-01T01:52:35.943Z,7.53
2022-12-01T01:55:02.930Z,8.73
2022-12-01T01:57:33.298Z,7.50
2022-12-01T02:00:08.012Z,7.38
2022-12-01T02:02:40.798Z,7.45
2022-12-01T02:05:11.152Z,8.68
2022-12-01T02:07:39.868Z,6.95
2022-12-01T02:10:09.177Z,8.02
2022-12-01T02:12:54.472Z,6.43
2022-12-01T02:15:39.627Z,7.50
2022-12-01T02:18:43.180Z,7.85
2022-12-01T02:21:44.266Z,6.50
2022-12-01T02:24:25.967Z,7.63
2022-12-01T02:26:58.627Z,7.07
2022-12-01T02:29:56.145Z,6.47
2022-12-01T02:33:04.909Z,8.18
2022-12-01T02:35:40.378Z,8.27
2022-12-01T02:38:16.208Z,7.40
2022-12-01T02:40:48.474Z,6.88
2022-12-01T02:43:49.361Z,7.07
2022-12-01T02:46:25.364Z,7.20
2022-12-01T02:48:55.400Z,6.68
2022-12-01T02:51:29.014Z,6.75
2022-12-01T02:53:58.700Z,6.80
2022-12-01T02:56:25.604Z,7.97
2022-12-01T02:58:52.302Z,7.90
2022-12-01T03:01:33.869Z,7.50
2022-12-01T03:04:31.146Z,6.45
2022-12-01T03:07:00.315Z,7.13
2022-12-01T03:12:41.618Z,6.43
2022-12-01T03:15:29.764Z,6.03
2022-12-01T03:18:28.470Z,6.03
2022-12-01T03:21:26.715Z,6.10
2022-12-01T03:24:01.761Z,6.03
2022-12-01T03:26:32.656Z,6.05
2022-12-01T03:29:05.655Z,6.22
2022-12-01T03:31:37.782Z,6.63
2022-12-01T03:34:12.483Z,7.05
2022-12-01T03:36:50.141Z,5.70
2022-12-01T03:39:23.986Z,7.38
2022-12-01T03:42:06.870Z,6.53
2022-12-01T03:44:42.278Z,5.75
2022-12-01T03:47:17.072Z,6.55
2022-12-01T03:49:45.227Z,5.63
2022-12-01T03:52:49.491Z,8.00
2022-12-01T03:55:29.413Z,7.35
2022-12-01T03:58:11.389Z,7.40
2022-12-01T04:00:39.073Z,7.32
2022-12-01T04:03:06.487Z,7.15
2022-12-01T04:05:34.846Z,5.80
2022-12-01T04:08:02.007Z,6.67
2022-12-01T04:10:28.833Z,6.18
2022-12-01T04:12:59.385Z,7.55
2022-12-01T04:15:27.273Z,6.38
2022-12-01T04:17:54.135Z,7.38
2022-12-01T04:20:21.302Z,6.85
2022-12-01T04:22:48.260Z,6.43
2022-12-01T04:25:14.972Z,6.70
2022-12-01T04:27:41.542Z,7.00
2022-12-01T04:30:09.021Z,6.75
2022-12-01T04:32:42.324Z,7.65
2022-12-01T04:35:11.911Z,6.70
2022-12-01T04:37:39.532Z,6.40
2022-12-01T04:40:07.127Z,6.85
2022-12-01T04:42:33.723Z,7.32
2022-12-01T04:45:00.320Z,7.07
2022-12-01T04:47:26.922Z,6.07
2022-12-01T04:49:54.437Z,5.85
2022-12-01T04:52:20.991Z,6.65
2022-12-01T04:54:47.540Z,6.35
2022-12-01T04:57:14.128Z,6.85
2022-12-01T04:59:40.707Z,6.88
2022-12-01T05:02:07.673Z,6.95
2022-12-01T05:04:38.445Z,6.85
2022-12-01T05:07:05.232Z,6.85
2022-12-01T05:09:31.884Z,6.32
2022-12-01T05:11:58.462Z,7.13
2022-12-01T05:14:25.055Z,6.93
2022-12-01T05:16:51.657Z,6.53
2022-12-01T05:19:36.972Z,6.80
2022-12-01T05:22:03.516Z,6.53
2022-12-01T05:24:30.078Z,6.93
2022-12-01T05:26:56.722Z,6.95
2022-12-01T05:29:23.318Z,5.85
2022-12-01T05:31:49.921Z,6.07
2022-12-01T05:34:16.615Z,5.63
2022-12-01T05:36:43.224Z,6.72
2022-12-01T05:39:09.868Z,6.05
2022-12-01T05:41:36.775Z,6.88
2022-12-01T05:44:03.380Z,6.40
2022-12-01T05:46:29.960Z,6.53
2022-12-01T05:48:56.500Z,7.28
2022-12-01T05:51:23.067Z,7.25
2022-12-01T05:53:50.011Z,6.68
2022-12-01T05:56:16.633Z,6.25
2022-12-01T05:58:43.216Z,6.78
2022-12-01T06:01:09.897Z,5.85
2022-12-01T06:03:36.480Z,6.88
2022-12-01T06:06:03.061Z,6.20
2022-12-01T06:08:29.822Z,5.97
2022-12-01T06:10:56.381Z,6.15
2022-12-01T06:13:23.106Z,6.45
2022-12-01T06:16:01.244Z,6.47
2022-12-01T06:18:30.037Z,6.70
2022-12-01T06:20:56.648Z,6.95
2022-12-01T06:23:27.598Z,7.63
2022-12-01T06:25:56.663Z,6.63
2022-12-01T06:28:23.254Z,6.50
2022-12-01T06:30:49.854Z,6.72
2022-12-01T06:33:16.457Z,8.27
2022-12-01T06:35:43.075Z,7.05
2022-12-01T06:38:09.660Z,7.38
2022-12-01T06:40:36.492Z,6.80
2022-12-01T06:43:03.056Z,6.35
2022-12-01T06:45:30.353Z,7.18
2022-12-01T06:47:57.680Z,7.70
2022-12-01T06:50:25.277Z,7.75
2022-12-01T06:52:52.879Z,7.07
2022-12-01T06:55:19.591Z,6.88
2022-12-01T06:57:46.642Z,9.70
2022-12-01T07:00:14.557Z,19.33
2022-12-01T07:02:41.565Z,14.57
2022-12-01T07:05:08.514Z,12.85
2022-12-01T07:07:41.053Z,14.80
2022-12-01T07:10:09.843Z,25.33
2022-12-01T07:12:36.748Z,22.65
2022-12-01T07:15:04.499Z,39.60
2022-12-01T07:17:31.046Z,25.05
2022-12-01T07:19:58.103Z,26.35
2022-12-01T07:22:29.539Z,22.88
2022-12-01T07:24:58.904Z,14.65
2022-12-01T07:27:25.516Z,15.85
2022-12-01T07:29:52.109Z,19.90
2022-12-01T07:32:18.754Z,12.60
2022-12-01T07:34:45.315Z,10.68
2022-12-01T07:37:11.850Z,11.40
2022-12-01T07:41:32.246Z,15.20
2022-12-01T07:43:58.886Z,14.80
2022-12-01T07:46:27.244Z,13.02
2022-12-01T07:48:54.988Z,14.68
2022-12-01T07:51:23.124Z,14.35
2022-12-01T07:53:50.958Z,17.02
2022-12-01T07:56:18.963Z,18.52
2022-12-01T07:58:45.692Z,15.57
2022-12-01T08:01:24.824Z,14.40
2022-12-01T08:03:53.866Z,11.23
2022-12-01T08:06:21.190Z,11.82
2022-12-01T08:08:47.923Z,11.02
2022-12-01T08:11:17.619Z,10.35
2022-12-01T08:13:44.980Z,10.52
2022-12-01T08:16:14.689Z,8.60
2022-12-01T08:18:42.735Z,9.00
2022-12-01T08:21:11.890Z,10.25
2022-12-01T08:23:38.694Z,9.57
2022-12-01T08:26:08.233Z,9.18
2022-12-01T08:28:38.952Z,9.32
2022-12-01T08:31:12.359Z,10.25
2022-12-01T08:33:39.218Z,7.53
2022-12-01T08:36:06.843Z,6.97
2022-12-01T08:38:33.674Z,7.85
2022-12-01T08:41:05.539Z,9.52
2022-12-01T08:43:56.579Z,8.90
2022-12-01T08:46:18.872Z,6.80
2022-12-01T08:48:45.658Z,4.38
2022-12-01T08:51:18.365Z,3.05
2022-12-01T08:53:47.744Z,2.25
2022-12-01T08:56:21.243Z,2.17
2022-12-01T08:58:48.279Z,2.08
2022-12-01T09:01:16.572Z,2.78
2022-12-01T09:03:44.245Z,2.22
2022-12-01T09:06:16.083Z,2.00
2022-12-01T09:08:43.347Z,2.75
2022-12-01T09:11:16.014Z,2.92
2022-12-01T09:13:43.550Z,1.95
2022-12-01T09:16:17.288Z,2.38
2022-12-01T09:18:45.504Z,2.38
2022-12-01T09:21:21.166Z,2.28
2022-12-01T09:23:48.700Z,2.00
2022-12-01T09:26:18.672Z,3.70
2022-12-01T09:28:46.566Z,1.92
2022-12-01T09:31:15.138Z,2.58
2022-12-01T09:36:09.026Z,2.00
2022-12-01T09:38:37.101Z,2.30
2022-12-01T09:41:18.245Z,2.65
2022-12-01T09:43:54.054Z,1.85
2022-12-01T09:46:26.585Z,2.63
2022-12-01T09:48:57.248Z,1.92
2022-12-01T09:51:26.301Z,2.78
2022-12-01T09:53:59.739Z,3.35
2022-12-01T09:56:27.632Z,3.30
2022-12-01T09:58:57.401Z,3.55
2022-12-01T10:01:44.803Z,3.22
2022-12-01T10:04:46.510Z,2.63
2022-12-01T10:07:21.272Z,2.85
2022-12-01T10:09:52.274Z,2.70
2022-12-01T10:12:22.595Z,3.10
2022-12-01T10:14:49.153Z,2.97
2022-12-01T10:17:15.637Z,3.55
2022-12-01T10:20:02.774Z,3.47
2022-12-01T10:22:49.179Z,3.63
2022-12-01T10:25:21.898Z,3.03
2022-12-01T10:28:06.861Z,2.97
2022-12-01T10:30:39.347Z,2.72
2022-12-01T10:33:34.031Z,3.20
2022-12-01T10:36:00.736Z,3.30
2022-12-01T10:38:31.061Z,3.45
2022-12-01T10:41:01.494Z,3.42
2022-12-01T10:43:57.874Z,4.40
2022-12-01T10:46:32.888Z,3.70
2022-12-01T10:49:06.876Z,4.70
2022-12-01T10:51:56.728Z,4.65
2022-12-01T10:54:40.197Z,4.57
2022-12-01T10:57:14.573Z,4.78
2022-12-01T10:59:53.216Z,4.00
2022-12-01T11:02:22.780Z,3.38
2022-12-01T11:04:59.548Z,3.70
2022-12-01T11:07:43.097Z,4.55
2022-12-01T11:10:17.638Z,3.58
2022-12-01T11:12:52.373Z,3.97
2022-12-01T11:15:28.113Z,3.45
2022-12-01T11:18:03.500Z,3.75
2022-12-01T11:20:38.533Z,3.90
2022-12-01T11:23:29.956Z,4.20
2022-12-01T11:25:58.465Z,3.97
2022-12-01T11:28:25.396Z,3.85
2022-12-01T11:30:58.418Z,3.90
2022-12-01T11:33:25.942Z,3.80
2022-12-01T11:35:52.754Z,4.43
2022-12-01T11:38:30.527Z,4.40
2022-12-01T11:40:58.567Z,4.90
2022-12-01T11:43:29.581Z,3.95
2022-12-01T11:45:58.754Z,4.22
2022-12-01T11:48:30.793Z,4.25
2022-12-01T11:51:37.162Z,4.05
2022-12-01T11:54:23.269Z,4.07
2022-12-01T11:57:17.474Z,4.22
2022-12-01T11:59:38.041Z,4.55
2022-12-01T12:02:23.187Z,4.20
2022-12-01T12:05:04.490Z,4.43
2022-12-01T12:07:55.128Z,4.43
2022-12-01T12:10:41.221Z,9.63
2022-12-01T12:13:46.863Z,5.38
2022-12-01T12:16:57.917Z,4.63
2022-12-01T12:20:12.403Z,4.88
2022-12-01T12:22:57.882Z,4.93
2022-12-01T12:25:46.160Z,4.68
2022-12-01T12:28:12.700Z,6.28
2022-12-01T12:31:01.781Z,6.90
2022-12-01T12:33:59.338Z,4.72
2022-12-01T12:36:52.003Z,4.53
2022-12-01T12:39:32.172Z,4.70
2022-12-01T12:41:58.857Z,6.10
2022-12-01T12:44:37.261Z,5.05
2022-12-01T12:47:25.519Z,4.90
2022-12-01T12:50:12.041Z,4.40
2022-12-01T12:52:45.594Z,4.53
2022-12-01T12:55:37.126Z,4.35
2022-12-01T12:58:13.196Z,5.43
2022-12-01T13:00:48.476Z,4.57
2022-12-01T13:03:23.208Z,6.18
2022-12-01T13:06:01.590Z,5.10
2022-12-01T13:08:38.591Z,5.50
2022-12-01T13:11:20.846Z,4.60
2022-12-01T13:14:17.937Z,5.88
2022-12-01T13:16:48.337Z,4.10
2022-12-01T13:19:35.527Z,6.05
2022-12-01T13:22:03.150Z,4.72
2022-12-01T13:24:31.282Z,4.70
2022-12-01T13:27:03.031Z,4.18
2022-12-01T13:29:37.444Z,4.07
2022-12-01T13:32:28.525Z,4.75
2022-12-01T13:34:55.578Z,5.07
2022-12-01T13:37:34.287Z,3.65
2022-12-01T13:42:37.306Z,4.57
2022-12-01T13:45:19.186Z,3.58
2022-12-01T13:47:54.903Z,4.38
2022-12-01T13:50:43.833Z,2.35
2022-12-01T13:53:19.298Z,1.52
2022-12-01T13:56:05.702Z,1.63
2022-12-01T13:58:32.337Z,1.80
2022-12-01T14:01:20.883Z,1.98
2022-12-01T14:04:18.103Z,1.88
2022-12-01T14:06:49.619Z,2.22
2022-12-01T14:09:35.369Z,2.13
2022-12-01T14:12:06.599Z,1.60
2022-12-01T14:14:38.950Z,1.73
2022-12-01T14:17:06.051Z,1.80
2022-12-01T14:19:32.561Z,2.45
2022-12-01T14:22:01.340Z,2.10
2022-12-01T14:27:11.818Z,1.73
2022-12-01T14:29:42.670Z,1.75
2022-12-01T14:32:09.206Z,2.03
2022-12-01T14:34:37.406Z,2.38
2022-12-01T14:37:11.199Z,2.13
2022-12-01T14:39:43.428Z,2.50
2022-12-01T14:43:00.182Z,3.13
2022-12-01T14:45:45.662Z,3.63
2022-12-01T14:48:21.514Z,4.00
2022-12-01T14:50:51.947Z,4.55
2022-12-01T14:53:24.278Z,4.05
2022-12-01T14:55:58.843Z,4.65
2022-12-01T14:58:31.961Z,4.88
2022-12-01T15:01:11.016Z,4.28
2022-12-01T15:03:45.505Z,4.30
2022-12-01T15:06:20.889Z,3.53
2022-12-01T15:09:32.002Z,3.40
2022-12-01T15:11:54.700Z,3.60
2022-12-01T15:14:22.521Z,3.20
2022-12-01T15:16:49.367Z,4.18
2022-12-01T15:19:35.269Z,3.58
2022-12-01T15:22:16.965Z,3.95
2022-12-01T15:24:44.567Z,3.90
2022-12-01T15:27:32.477Z,3.78
2022-12-01T15:30:04.420Z,5.17
2022-12-01T15:32:37.833Z,5.78
2022-12-01T15:35:05.588Z,4.38
2022-12-01T15:37:42.564Z,3.97
2022-12-01T15:43:14.397Z,6.13
2022-12-01T15:45:56.469Z,6.15
2022-12-01T15:48:32.875Z,6.32
2022-12-01T15:51:01.814Z,7.13
2022-12-01T15:56:01.784Z,6.28
2022-12-01T15:58:36.321Z,7.47
2022-12-01T16:01:12.997Z,7.47
2022-12-01T16:04:14.263Z,7.28
2022-12-01T16:06:41.492Z,6.63
2022-12-01T16:09:28.679Z,8.23
2022-12-01T16:12:22.652Z,10.73
2022-12-01T16:14:50.902Z,9.60
2022-12-01T16:17:17.629Z,9.23
2022-12-01T16:19:45.553Z,10.18
2022-12-01T16:22:14.378Z,9.48
2022-12-01T16:24:48.719Z,10.13
2022-12-01T16:27:28.558Z,11.07
2022-12-01T16:29:57.174Z,9.60
2022-12-01T16:32:29.735Z,10.80
2022-12-01T16:34:56.268Z,11.10
2022-12-01T16:37:23.264Z,11.18
2022-12-01T16:39:50.033Z,9.95
2022-12-01T16:42:18.735Z,11.27
2022-12-01T16:44:46.509Z,10.38
2022-12-01T16:47:19.225Z,10.13
2022-12-01T16:49:45.978Z,9.70
